Tilburg, Netherlands
Current Conditions -  °F | °C
As of 10:55 AM on Saturday 22 Nov 2014 (Local Time) from EHGR Reporting Station
Few Clouds Few Clouds  
Wind Chill: 44°   Ceiling: Unl
Heat Index: 48°   Visibility: 6mi
Dew Point: 43°   Wind: 9mph
Humidity: 82%   Direction: 160°SSE
Pressure: 30.03"   Gusts: NA
Location:  51.58°N, 5.06°E
Report Text: EHGR 220955Z AUTO 16008KT 9999 FEW190 09/06 Q1017 BLU
Loading
Personal Weather Stations






























Interactive Weather Map New forecast layout! Learn more

10-Day Weather Forecast

Advertisements
Track Severe Weather on mobile